Time;durP1;ratioP1;P1;durP2;ratioP2;P2;SDS_P1;SDS_P2;PMS_P1;PMS_P2;Temp;Humidity;BMP_temperature;BMP_pressure;BME280_temperature;BME280_humidity;BME280_pressure;Samples;Min_cycle;Max_cycle;Signal;HPM_P1;HPM_P2
2022/08/17 00:00:21;;;;;;;;;;;25.60;57.10;;;;;;5024047;28;19921;-61
2022/08/17 00:02:58;;;;;;;;;;;25.60;57.10;;;;;;5043370;28;19929;-61
2022/08/17 00:05:25;;;;;;;;;;;25.60;57.10;;;;;;5019636;28;19925;-60
2022/08/17 00:07:52;;;;;;;;;;;25.60;57.10;;;;;;5031442;28;20011;-61
2022/08/17 00:10:18;;;;;;;;;;;25.60;57.10;;;;;;5049137;28;20012;-61
2022/08/17 00:12:45;;;;;;;;;;;25.60;57.00;;;;;;5050099;28;19948;-61
2022/08/17 00:15:13;;;;;;;;;;;25.60;57.40;;;;;;5031521;28;19927;-61
2022/08/17 00:17:41;;;;;;;;;;;25.60;57.00;;;;;;5031257;28;19921;-61
2022/08/17 00:20:07;;;;;;;;;;;25.60;57.00;;;;;;5016152;28;20028;-62
2022/08/17 00:22:34;;;;;;;;;;;25.60;57.00;;;;;;5035951;28;19964;-62
2022/08/17 00:25:01;;;;;;;;;;;25.60;57.00;;;;;;5031675;28;19921;-60
2022/08/17 00:27:27;;;;;;;;;;;25.60;57.00;;;;;;5040774;28;19979;-62
2022/08/17 00:29:54;;;;;;;;;;;25.60;57.00;;;;;;5028791;28;19921;-61
2022/08/17 00:32:22;;;;;;;;;;;25.60;57.00;;;;;;5014917;28;19929;-61
2022/08/17 00:34:49;;;;;;;;;;;25.60;57.00;;;;;;5022300;28;20011;-62
2022/08/17 00:37:16;;;;;;;;;;;25.60;57.00;;;;;;5060724;28;19928;-61
2022/08/17 00:39:43;;;;;;;;;;;25.60;57.00;;;;;;5028866;28;19991;-61
2022/08/17 00:42:12;;;;;;;;;;;25.60;57.00;;;;;;5028736;28;19991;-61
2022/08/17 00:44:39;;;;;;;;;;;25.60;57.00;;;;;;5028439;28;20286;-61
2022/08/17 00:47:06;;;;;;;;;;;25.60;57.00;;;;;;5028937;28;20011;-61
2022/08/17 00:49:34;;;;;;;;;;;25.60;57.00;;;;;;5032006;28;19928;-61
2022/08/17 00:52:05;;;;;;;;;;;25.60;56.90;;;;;;5058609;28;19920;-61
2022/08/17 00:54:33;;;;;;;;;;;25.60;56.90;;;;;;5039705;28;19925;-61
2022/08/17 00:57:00;;;;;;;;;;;25.60;56.90;;;;;;5051841;28;19924;-61
2022/08/17 00:59:29;;;;;;;;;;;25.60;56.90;;;;;;5032398;28;19925;-61
2022/08/17 01:01:56;;;;;;;;;;;25.60;56.90;;;;;;5037517;28;19920;-61
2022/08/17 01:04:23;;;;;;;;;;;25.50;56.90;;;;;;5035240;28;19920;-61
2022/08/17 01:06:53;;;;;;;;;;;25.60;56.90;;;;;;5040944;28;19948;-61
2022/08/17 01:09:20;;;;;;;;;;;25.50;56.80;;;;;;5039936;28;19975;-61
2022/08/17 01:11:50;;;;;;;;;;;25.60;56.90;;;;;;5028179;28;20414;-61
2022/08/17 01:14:19;;;;;;;;;;;25.50;56.80;;;;;;5045632;28;19927;-62
2022/08/17 01:16:46;;;;;;;;;;;25.50;56.80;;;;;;5035056;28;19931;-60
2022/08/17 01:19:14;;;;;;;;;;;25.60;56.80;;;;;;5052827;28;20381;-61
2022/08/17 01:21:42;;;;;;;;;;;25.60;56.80;;;;;;5033220;28;19994;-60
2022/08/17 01:24:10;;;;;;;;;;;25.60;56.80;;;;;;5034938;28;19966;-61
2022/08/17 01:26:37;;;;;;;;;;;25.50;56.70;;;;;;5033968;28;19940;-60
2022/08/17 01:29:04;;;;;;;;;;;25.50;56.70;;;;;;5035628;28;19975;-60
2022/08/17 01:31:32;;;;;;;;;;;25.60;56.80;;;;;;5017692;28;19936;-61
2022/08/17 01:33:59;;;;;;;;;;;25.50;56.70;;;;;;5039355;28;20380;-61
2022/08/17 01:36:27;;;;;;;;;;;25.50;56.70;;;;;;5018474;28;20369;-61
2022/08/17 01:38:53;;;;;;;;;;;25.60;56.80;;;;;;5025199;28;20011;-61
2022/08/17 01:41:21;;;;;;;;;;;25.50;56.70;;;;;;5018053;28;19955;-61
2022/08/17 01:43:49;;;;;;;;;;;25.50;56.70;;;;;;5034387;28;20022;-61
2022/08/17 01:46:16;;;;;;;;;;;25.50;57.00;;;;;;5033796;28;19929;-62
2022/08/17 01:48:46;;;;;;;;;;;25.50;56.70;;;;;;5033905;28;19944;-61
2022/08/17 01:51:13;;;;;;;;;;;25.50;56.70;;;;;;5033498;28;20020;-62
2022/08/17 01:53:41;;;;;;;;;;;25.50;56.70;;;;;;5041275;28;20386;-61
2022/08/17 01:56:08;;;;;;;;;;;25.50;56.70;;;;;;5034178;28;19928;-61
2022/08/17 01:58:37;;;;;;;;;;;25.50;56.70;;;;;;5043797;28;20357;-61
2022/08/17 02:01:04;;;;;;;;;;;25.50;56.70;;;;;;5032727;28;19920;-61
2022/08/17 02:03:31;;;;;;;;;;;25.50;56.70;;;;;;5032341;28;20003;-62
2022/08/17 02:05:58;;;;;;;;;;;25.50;56.70;;;;;;5033899;28;19920;-61
2022/08/17 02:08:24;;;;;;;;;;;25.50;56.70;;;;;;5051861;28;19975;-62
2022/08/17 02:10:52;;;;;;;;;;;25.50;56.70;;;;;;5034851;28;19928;-62
2022/08/17 02:13:19;;;;;;;;;;;25.50;56.70;;;;;;5029549;28;20400;-61
2022/08/17 02:15:47;;;;;;;;;;;25.50;57.20;;;;;;5033013;28;19921;-62
2022/08/17 02:18:14;;;;;;;;;;;25.50;56.70;;;;;;5047777;28;19924;-61
2022/08/17 02:20:41;;;;;;;;;;;25.50;56.70;;;;;;5036592;28;19927;-62
2022/08/17 02:23:08;;;;;;;;;;;25.50;56.70;;;;;;5026970;28;20605;-62
2022/08/17 02:25:35;;;;;;;;;;;25.50;56.70;;;;;;5034025;28;19959;-61
2022/08/17 02:28:02;;;;;;;;;;;25.50;56.60;;;;;;5034526;28;19928;-61
2022/08/17 02:30:28;;;;;;;;;;;25.50;56.60;;;;;;5031177;28;19928;-62
2022/08/17 02:32:57;;;;;;;;;;;25.50;56.60;;;;;;5030366;28;19928;-61
2022/08/17 02:35:25;;;;;;;;;;;25.50;56.60;;;;;;5016176;28;21748;-61
2022/08/17 02:37:52;;;;;;;;;;;25.50;56.60;;;;;;5014753;28;19967;-61
2022/08/17 02:40:20;;;;;;;;;;;25.50;56.60;;;;;;5032224;28;19927;-62
2022/08/17 02:42:47;;;;;;;;;;;25.50;56.60;;;;;;5029537;28;19928;-61
2022/08/17 02:45:14;;;;;;;;;;;25.50;56.60;;;;;;5032050;28;20016;-62
2022/08/17 02:47:41;;;;;;;;;;;25.40;56.50;;;;;;5028377;28;19932;-61
2022/08/17 02:50:10;;;;;;;;;;;25.50;56.70;;;;;;5032507;28;19964;-62
2022/08/17 02:52:38;;;;;;;;;;;25.50;56.60;;;;;;5032969;28;19921;-61
2022/08/17 02:55:05;;;;;;;;;;;25.50;56.60;;;;;;5022995;28;20378;-61
2022/08/17 02:57:31;;;;;;;;;;;25.40;56.50;;;;;;5038577;28;20273;-61
2022/08/17 02:59:58;;;;;;;;;;;25.50;56.70;;;;;;5056215;28;19921;-61
2022/08/17 03:02:25;;;;;;;;;;;25.40;56.60;;;;;;5029736;28;20002;-61
2022/08/17 03:04:51;;;;;;;;;;;25.50;56.60;;;;;;5050464;28;19990;-62
2022/08/17 03:07:20;;;;;;;;;;;25.40;56.60;;;;;;5053866;28;19924;-62
2022/08/17 03:09:47;;;;;;;;;;;25.40;56.60;;;;;;5034707;28;19921;-62
2022/08/17 03:12:13;;;;;;;;;;;25.50;56.60;;;;;;5025802;28;19920;-62
2022/08/17 03:14:40;;;;;;;;;;;25.40;56.50;;;;;;5027042;28;19985;-61
2022/08/17 03:17:08;;;;;;;;;;;25.40;56.50;;;;;;5028144;28;19932;-62
2022/08/17 03:19:35;;;;;;;;;;;25.40;56.60;;;;;;5032029;28;19920;-62
2022/08/17 03:22:04;;;;;;;;;;;25.50;56.60;;;;;;5032985;28;19921;-61
2022/08/17 03:24:32;;;;;;;;;;;25.50;56.60;;;;;;5019161;28;19928;-62
2022/08/17 03:26:59;;;;;;;;;;;25.40;56.60;;;;;;5031718;28;19929;-61
2022/08/17 03:29:26;;;;;;;;;;;25.50;56.60;;;;;;5059668;28;19928;-62
2022/08/17 03:31:52;;;;;;;;;;;25.40;56.50;;;;;;5051042;28;19967;-62
2022/08/17 03:34:19;;;;;;;;;;;25.40;56.50;;;;;;5028564;28;19920;-61
2022/08/17 03:36:46;;;;;;;;;;;25.40;56.50;;;;;;5048270;28;20350;-62
2022/08/17 03:39:12;;;;;;;;;;;25.40;56.50;;;;;;5037472;28;19995;-61
2022/08/17 03:41:41;;;;;;;;;;;25.40;56.50;;;;;;5024145;28;19967;-61
2022/08/17 03:44:07;;;;;;;;;;;25.40;56.50;;;;;;5048601;28;20308;-61
2022/08/17 03:57:32;;;;;;;;;;;25.40;56.50;;;;;;5028997;28;20095;-61
2022/08/17 03:59:59;;;;;;;;;;;25.40;56.50;;;;;;5039305;28;19932;-61
2022/08/17 04:02:27;;;;;;;;;;;25.40;56.50;;;;;;5040962;28;19929;-61
2022/08/17 04:04:54;;;;;;;;;;;25.40;56.50;;;;;;5024496;28;19925;-61
2022/08/17 04:07:20;;;;;;;;;;;25.40;56.50;;;;;;5025370;28;20021;-61
2022/08/17 04:09:47;;;;;;;;;;;25.40;56.50;;;;;;5027586;28;19929;-61
2022/08/17 04:12:14;;;;;;;;;;;25.40;56.50;;;;;;5040604;28;20429;-62
2022/08/17 04:14:42;;;;;;;;;;;25.40;56.50;;;;;;5033601;28;19925;-61
2022/08/17 04:17:09;;;;;;;;;;;25.40;56.60;;;;;;5025117;28;19929;-62
2022/08/17 04:19:36;;;;;;;;;;;25.40;56.50;;;;;;5029374;28;19925;-61
2022/08/17 04:22:05;;;;;;;;;;;25.40;56.60;;;;;;5029734;28;19929;-61
2022/08/17 04:24:32;;;;;;;;;;;25.40;56.50;;;;;;5035731;28;20396;-61
2022/08/17 04:27:00;;;;;;;;;;;25.40;56.50;;;;;;5031705;28;20012;-61
2022/08/17 04:29:26;;;;;;;;;;;25.40;56.50;;;;;;5031209;28;20378;-62
2022/08/17 04:31:55;;;;;;;;;;;25.40;56.50;;;;;;5023445;28;19924;-61
2022/08/17 04:34:21;;;;;;;;;;;25.40;56.50;;;;;;5027517;28;19927;-61
2022/08/17 04:36:48;;;;;;;;;;;25.40;56.50;;;;;;5031018;28;19925;-61
2022/08/17 04:39:17;;;;;;;;;;;25.40;56.50;;;;;;5025866;28;19921;-61
2022/08/17 04:44:28;;;;;;;;;;;25.40;56.50;;;;;;5045395;28;19921;-62
2022/08/17 04:46:56;;;;;;;;;;;25.40;56.50;;;;;;5049399;28;19921;-62
2022/08/17 04:49:23;;;;;;;;;;;25.40;56.60;;;;;;5019663;28;19921;-62
2022/08/17 04:51:49;;;;;;;;;;;25.40;56.60;;;;;;5047818;28;19925;-62
2022/08/17 04:54:17;;;;;;;;;;;25.30;56.50;;;;;;5030466;28;20362;-62
2022/08/17 04:56:44;;;;;;;;;;;25.40;56.60;;;;;;5030211;28;20008;-62
2022/08/17 04:59:11;;;;;;;;;;;25.40;56.50;;;;;;5031940;28;19925;-62
2022/08/17 05:01:38;;;;;;;;;;;25.40;56.60;;;;;;5018725;28;20413;-63
2022/08/17 05:04:07;;;;;;;;;;;25.40;56.60;;;;;;5032480;28;20277;-63
2022/08/17 05:06:34;;;;;;;;;;;25.40;56.60;;;;;;5034010;28;19921;-62
2022/08/17 05:09:01;;;;;;;;;;;25.40;56.60;;;;;;5030295;28;19927;-62
2022/08/17 05:11:28;;;;;;;;;;;25.30;56.50;;;;;;5026542;28;20366;-62
2022/08/17 05:13:56;;;;;;;;;;;25.40;56.60;;;;;;5033914;28;19968;-63
2022/08/17 05:16:23;;;;;;;;;;;25.40;56.60;;;;;;5039805;28;19983;-62
2022/08/17 05:18:52;;;;;;;;;;;25.40;56.60;;;;;;5038990;28;19932;-62
2022/08/17 05:21:21;;;;;;;;;;;25.40;56.60;;;;;;5056103;28;20365;-63
2022/08/17 05:23:48;;;;;;;;;;;25.40;56.70;;;;;;5040199;28;20485;-62
2022/08/17 05:26:16;;;;;;;;;;;25.30;56.60;;;;;;5057081;28;19921;-63
2022/08/17 05:28:42;;;;;;;;;;;25.40;56.70;;;;;;5056352;28;19963;-60
2022/08/17 05:31:09;;;;;;;;;;;25.40;56.70;;;;;;5053587;28;19924;-61
2022/08/17 05:33:37;;;;;;;;;;;25.40;56.70;;;;;;5036512;28;19927;-61
2022/08/17 05:36:04;;;;;;;;;;;25.40;56.70;;;;;;5036183;28;20285;-61
2022/08/17 05:38:33;;;;;;;;;;;25.40;56.70;;;;;;5039986;28;19920;-60
2022/08/17 05:41:00;;;;;;;;;;;25.40;56.80;;;;;;5039105;28;19924;-61
2022/08/17 05:43:27;;;;;;;;;;;25.40;56.80;;;;;;5054977;28;19932;-62
2022/08/17 05:45:56;;;;;;;;;;;25.40;56.80;;;;;;5037849;28;19932;-61
2022/08/17 05:48:23;;;;;;;;;;;25.40;56.80;;;;;;5060862;28;19920;-61
2022/08/17 05:50:50;;;;;;;;;;;25.40;56.90;;;;;;5037608;28;19928;-61
2022/08/17 05:53:19;;;;;;;;;;;25.40;56.90;;;;;;5039880;28;20011;-61
2022/08/17 05:55:48;;;;;;;;;;;25.40;56.90;;;;;;5039448;28;19932;-61
2022/08/17 05:58:17;;;;;;;;;;;25.40;56.90;;;;;;5056350;28;19947;-63
2022/08/17 06:00:49;;;;;;;;;;;25.40;56.90;;;;;;5043193;28;19927;-62
2022/08/17 06:03:22;;;;;;;;;;;25.40;56.90;;;;;;5040054;28;19921;-62
2022/08/17 06:05:51;;;;;;;;;;;25.40;56.90;;;;;;5036380;28;19987;-62
2022/08/17 06:08:20;;;;;;;;;;;25.40;57.00;;;;;;5042007;28;20011;-63
2022/08/17 06:10:52;;;;;;;;;;;25.40;57.00;;;;;;5046061;28;20288;-62
2022/08/17 06:13:20;;;;;;;;;;;25.40;57.00;;;;;;5037369;28;19978;-63
2022/08/17 06:15:51;;;;;;;;;;;25.40;57.00;;;;;;5040418;28;19933;-63
2022/08/17 06:18:18;;;;;;;;;;;25.40;57.00;;;;;;5059841;28;19921;-61
2022/08/17 06:20:45;;;;;;;;;;;25.40;57.00;;;;;;5043610;28;19920;-61
2022/08/17 06:23:13;;;;;;;;;;;25.40;57.00;;;;;;5037180;28;19925;-61
2022/08/17 06:25:42;;;;;;;;;;;25.40;57.00;;;;;;5059230;28;20364;-62
2022/08/17 06:28:13;;;;;;;;;;;25.40;57.00;;;;;;5043316;28;19920;-62
2022/08/17 06:30:41;;;;;;;;;;;25.40;57.00;;;;;;5035289;28;20377;-62
2022/08/17 06:33:10;;;;;;;;;;;25.40;57.00;;;;;;5040785;28;19925;-62
2022/08/17 06:35:37;;;;;;;;;;;25.40;57.00;;;;;;5031008;28;19927;-63
2022/08/17 06:38:08;;;;;;;;;;;25.40;57.00;;;;;;5036033;28;20014;-62
2022/08/17 06:40:44;;;;;;;;;;;25.40;57.00;;;;;;5035199;28;19927;-62
2022/08/17 06:43:15;;;;;;;;;;;25.40;57.00;;;;;;5052915;28;19932;-61
2022/08/17 06:45:47;;;;;;;;;;;25.40;57.00;;;;;;5048303;28;19928;-62
2022/08/17 06:48:15;;;;;;;;;;;25.40;57.00;;;;;;5034250;28;20277;-62
2022/08/17 06:50:43;;;;;;;;;;;25.40;57.00;;;;;;5033064;28;19928;-62
2022/08/17 06:53:13;;;;;;;;;;;25.40;57.10;;;;;;5013591;28;19928;-62
2022/08/17 06:55:42;;;;;;;;;;;25.40;57.00;;;;;;5033048;28;19944;-61
2022/08/17 06:58:10;;;;;;;;;;;25.50;57.10;;;;;;5016226;28;19929;-62
2022/08/17 07:00:39;;;;;;;;;;;25.40;57.00;;;;;;5044583;28;19932;-61
2022/08/17 07:03:19;;;;;;;;;;;25.50;57.10;;;;;;5024807;28;19920;-61
2022/08/17 07:05:47;;;;;;;;;;;25.40;57.10;;;;;;5036062;28;19983;-61
2022/08/17 07:08:19;;;;;;;;;;;25.40;57.10;;;;;;5032455;28;19933;-61
2022/08/17 07:10:46;;;;;;;;;;;25.50;57.20;;;;;;5044101;28;20018;-60
2022/08/17 07:13:28;;;;;;;;;;;25.40;57.10;;;;;;5030332;28;19921;-61
2022/08/17 07:16:02;;;;;;;;;;;25.50;57.20;;;;;;5027923;28;19960;-61
2022/08/17 07:18:28;;;;;;;;;;;25.50;57.30;;;;;;5016770;28;20002;-61
2022/08/17 07:20:56;;;;;;;;;;;25.50;57.30;;;;;;5015213;28;19990;-60
2022/08/17 07:23:23;;;;;;;;;;;25.40;57.20;;;;;;5023556;28;19929;-61
2022/08/17 07:25:49;;;;;;;;;;;25.50;57.40;;;;;;5034434;28;20023;-60
2022/08/17 07:28:21;;;;;;;;;;;25.40;57.30;;;;;;5040566;28;19929;-60
2022/08/17 07:30:50;;;;;;;;;;;25.40;57.30;;;;;;5014569;28;19933;-59
2022/08/17 07:33:19;;;;;;;;;;;25.40;57.40;;;;;;5034112;28;19920;-60
2022/08/17 07:35:47;;;;;;;;;;;25.40;57.30;;;;;;5015757;28;19928;-62
2022/08/17 07:38:14;;;;;;;;;;;25.40;57.30;;;;;;5024044;28;19925;-60
2022/08/17 07:40:41;;;;;;;;;;;25.40;57.30;;;;;;5041211;28;19925;-60
2022/08/17 07:43:21;;;;;;;;;;;25.40;57.30;;;;;;5031245;28;19928;-61
2022/08/17 07:48:39;;;;;;;;;;;25.40;57.40;;;;;;5023296;28;19941;-61
2022/08/17 07:51:14;;;;;;;;;;;25.40;57.40;;;;;;5029094;28;19925;-60
2022/08/17 07:53:41;;;;;;;;;;;25.40;57.40;;;;;;5026730;28;19928;-60
2022/08/17 07:56:08;;;;;;;;;;;25.40;57.40;;;;;;5024587;28;20009;-60
2022/08/17 07:58:34;;;;;;;;;;;25.40;57.50;;;;;;5028364;28;19968;-61
2022/08/17 08:01:05;;;;;;;;;;;25.40;57.60;;;;;;5029025;28;19986;-61
2022/08/17 08:03:32;;;;;;;;;;;25.40;57.70;;;;;;5029097;28;19933;-60
2022/08/17 08:06:01;;;;;;;;;;;25.50;57.80;;;;;;5027782;28;19929;-60
2022/08/17 08:08:30;;;;;;;;;;;25.50;57.70;;;;;;5033763;28;19925;-61
2022/08/17 08:10:57;;;;;;;;;;;25.50;58.30;;;;;;5031363;28;19921;-60
2022/08/17 08:13:25;;;;;;;;;;;25.50;57.60;;;;;;5031262;28;19964;-60
2022/08/17 08:15:52;;;;;;;;;;;25.50;57.60;;;;;;5010842;28;19932;-60
2022/08/17 08:18:20;;;;;;;;;;;25.50;57.60;;;;;;5047498;28;20050;-61
2022/08/17 08:20:49;;;;;;;;;;;25.50;57.60;;;;;;5029983;28;19933;-60
2022/08/17 08:23:18;;;;;;;;;;;25.50;57.50;;;;;;5041913;28;19975;-59
2022/08/17 08:25:47;;;;;;;;;;;25.50;57.50;;;;;;5046109;28;19979;-60
2022/08/17 08:28:17;;;;;;;;;;;25.50;57.40;;;;;;5023317;28;20015;-61
2022/08/17 08:30:45;;;;;;;;;;;25.50;57.40;;;;;;5041476;28;19927;-60
2022/08/17 08:33:17;;;;;;;;;;;25.50;57.40;;;;;;5049689;28;19937;-60
2022/08/17 08:35:46;;;;;;;;;;;25.60;57.40;;;;;;5031531;28;19921;-59
2022/08/17 08:38:15;;;;;;;;;;;25.50;57.30;;;;;;5028690;28;19921;-61
2022/08/17 08:40:59;;;;;;;;;;;25.60;57.40;;;;;;5042141;28;19921;-60
2022/08/17 08:43:29;;;;;;;;;;;25.60;57.30;;;;;;5035069;28;19925;-62
2022/08/17 08:45:57;;;;;;;;;;;25.60;57.30;;;;;;5025509;28;19956;-63
2022/08/17 08:48:30;;;;;;;;;;;25.60;57.30;;;;;;5035708;28;20031;-60
2022/08/17 08:50:59;;;;;;;;;;;25.60;57.30;;;;;;5028663;28;19933;-60
2022/08/17 08:53:30;;;;;;;;;;;25.60;57.30;;;;;;5024388;28;19959;-61
2022/08/17 08:55:58;;;;;;;;;;;25.60;57.20;;;;;;5044059;28;19960;-60
2022/08/17 08:58:29;;;;;;;;;;;25.70;57.30;;;;;;5043193;28;19927;-62
2022/08/17 09:00:56;;;;;;;;;;;25.60;57.20;;;;;;5038981;28;19921;-61
2022/08/17 09:03:25;;;;;;;;;;;25.60;57.20;;;;;;5026560;28;19932;-61
2022/08/17 09:06:01;;;;;;;;;;;25.70;57.20;;;;;;5025663;28;19954;-61
2022/08/17 09:08:30;;;;;;;;;;;25.70;57.20;;;;;;5025861;28;19921;-61
2022/08/17 09:11:01;;;;;;;;;;;25.70;57.20;;;;;;5048381;28;19921;-62
2022/08/17 09:13:30;;;;;;;;;;;25.70;57.20;;;;;;5024838;28;20011;-63
2022/08/17 09:15:58;;;;;;;;;;;25.70;57.20;;;;;;5028958;28;19951;-60
2022/08/17 09:18:25;;;;;;;;;;;25.70;57.20;;;;;;5034304;28;19921;-61
2022/08/17 09:20:54;;;;;;;;;;;25.70;57.20;;;;;;5036260;28;20002;-61
2022/08/17 09:23:23;;;;;;;;;;;25.70;57.20;;;;;;5034541;28;19921;-62
2022/08/17 09:25:51;;;;;;;;;;;25.70;57.10;;;;;;5033135;28;19921;-61
2022/08/17 09:28:19;;;;;;;;;;;25.70;57.10;;;;;;5050180;28;19921;-60
2022/08/17 09:30:47;;;;;;;;;;;25.70;57.10;;;;;;5020899;28;19928;-61
2022/08/17 09:33:15;;;;;;;;;;;25.70;57.10;;;;;;5035525;28;19928;-60
2022/08/17 09:35:43;;;;;;;;;;;25.70;57.00;;;;;;5039072;28;19992;-60
2022/08/17 09:38:14;;;;;;;;;;;25.70;57.00;;;;;;5031765;28;19971;-60
2022/08/17 09:40:43;;;;;;;;;;;25.70;57.00;;;;;;5032498;28;19925;-60
2022/08/17 09:43:11;;;;;;;;;;;25.70;57.00;;;;;;5056228;28;19929;-61
2022/08/17 09:45:39;;;;;;;;;;;25.70;57.00;;;;;;5037689;28;19925;-61
2022/08/17 09:48:08;;;;;;;;;;;25.80;57.00;;;;;;5057105;28;19924;-60
2022/08/17 09:50:36;;;;;;;;;;;25.80;57.00;;;;;;5041528;28;19933;-61
2022/08/17 09:53:03;;;;;;;;;;;25.70;56.90;;;;;;5033497;28;19975;-61
2022/08/17 09:55:32;;;;;;;;;;;25.70;56.90;;;;;;5034434;28;19995;-61
2022/08/17 09:58:03;;;;;;;;;;;25.80;57.50;;;;;;5030800;28;19925;-61
2022/08/17 10:00:31;;;;;;;;;;;25.80;56.90;;;;;;5033085;28;20007;-61
2022/08/17 10:03:01;;;;;;;;;;;25.70;56.80;;;;;;5033017;28;19928;-60
2022/08/17 10:05:31;;;;;;;;;;;25.70;56.80;;;;;;5034744;28;20012;-62
2022/08/17 10:08:00;;;;;;;;;;;25.80;56.80;;;;;;5050887;28;19925;-61
2022/08/17 10:10:28;;;;;;;;;;;25.70;56.80;;;;;;5046927;28;19928;-61
2022/08/17 10:12:57;;;;;;;;;;;25.80;56.80;;;;;;5029761;28;19927;-61
2022/08/17 10:15:26;;;;;;;;;;;25.80;56.80;;;;;;5034542;28;19924;-61
2022/08/17 10:18:02;;;;;;;;;;;25.80;56.80;;;;;;5033168;28;19925;-62
2022/08/17 10:20:32;;;;;;;;;;;25.80;56.80;;;;;;5048027;28;19971;-60
2022/08/17 10:28:32;;;;;;;;;;;25.80;56.70;;;;;;5040887;28;19936;-62
2022/08/17 10:31:00;;;;;;;;;;;25.80;56.70;;;;;;5050557;28;19925;-62
2022/08/17 10:33:27;;;;;;;;;;;25.80;56.70;;;;;;5029561;28;19939;-62
2022/08/17 10:35:58;;;;;;;;;;;25.80;56.70;;;;;;5028894;28;19966;-60
2022/08/17 10:38:33;;;;;;;;;;;25.80;56.60;;;;;;5033981;28;19927;-61
2022/08/17 10:41:01;;;;;;;;;;;25.80;56.40;;;;;;5034237;28;19921;-61
2022/08/17 10:43:34;;;;;;;;;;;25.80;56.10;;;;;;5031374;28;19987;-61
2022/08/17 10:46:03;;;;;;;;;;;25.80;56.00;;;;;;5040473;28;19921;-62
2022/08/17 10:48:31;;;;;;;;;;;25.80;55.60;;;;;;5033023;28;19921;-61
2022/08/17 10:51:00;;;;;;;;;;;25.80;55.40;;;;;;5031120;28;19931;-61
2022/08/17 10:53:47;;;;;;;;;;;25.90;55.30;;;;;;5028418;28;20056;-61
2022/08/17 10:56:18;;;;;;;;;;;25.80;55.20;;;;;;5038222;28;19936;-61
2022/08/17 10:58:45;;;;;;;;;;;25.90;55.10;;;;;;5048780;28;19950;-61
2022/08/17 11:01:12;;;;;;;;;;;25.80;55.00;;;;;;5055837;28;19983;-61
2022/08/17 11:03:52;;;;;;;;;;;25.80;54.80;;;;;;5026199;28;19948;-61
2022/08/17 11:06:21;;;;;;;;;;;25.90;54.60;;;;;;5031880;28;19947;-61
2022/08/17 11:08:56;;;;;;;;;;;25.80;54.70;;;;;;5027444;28;19933;-61
2022/08/17 11:11:42;;;;;;;;;;;25.90;54.50;;;;;;5040275;28;19924;-62
2022/08/17 11:14:20;;;;;;;;;;;25.80;54.40;;;;;;5044580;28;19925;-61
2022/08/17 11:16:50;;;;;;;;;;;25.90;54.40;;;;;;5050978;28;19931;-62
2022/08/17 11:19:43;;;;;;;;;;;25.90;54.50;;;;;;5033400;28;19924;-61
2022/08/17 11:22:16;;;;;;;;;;;25.90;54.60;;;;;;4999968;28;20378;-62
2022/08/17 11:24:46;;;;;;;;;;;25.90;54.70;;;;;;5031793;28;20256;-61
2022/08/17 11:27:21;;;;;;;;;;;25.90;54.80;;;;;;5031644;28;19928;-62
2022/08/17 11:29:49;;;;;;;;;;;25.90;54.90;;;;;;5016469;28;19936;-61
2022/08/17 11:32:28;;;;;;;;;;;25.90;54.90;;;;;;5023017;28;19921;-61
2022/08/17 11:35:05;;;;;;;;;;;25.90;55.00;;;;;;5028602;28;19939;-61
2022/08/17 11:37:44;;;;;;;;;;;25.90;55.00;;;;;;5046091;28;19960;-62
2022/08/17 11:40:24;;;;;;;;;;;25.90;55.10;;;;;;5047055;28;20327;-62
2022/08/17 11:43:04;;;;;;;;;;;25.90;55.10;;;;;;5046634;28;19931;-61
2022/08/17 11:45:55;;;;;;;;;;;26.00;55.20;;;;;;5052473;28;19925;-62
2022/08/17 11:54:00;;;;;;;;;;;26.00;55.10;;;;;;5031356;28;19920;-63
2022/08/17 11:56:39;;;;;;;;;;;26.00;55.10;;;;;;5028934;28;19927;-61
2022/08/17 11:59:25;;;;;;;;;;;26.00;55.20;;;;;;5023909;28;19956;-62
2022/08/17 12:01:54;;;;;;;;;;;26.00;55.10;;;;;;5029507;28;19929;-61
2022/08/17 12:04:24;;;;;;;;;;;26.00;55.10;;;;;;5024468;28;19921;-62
2022/08/17 12:06:53;;;;;;;;;;;26.00;55.10;;;;;;5044811;28;19921;-61
2022/08/17 12:09:23;;;;;;;;;;;26.00;55.00;;;;;;5026691;28;19920;-61
2022/08/17 12:11:51;;;;;;;;;;;26.00;55.10;;;;;;5049027;28;19924;-61
2022/08/17 12:14:21;;;;;;;;;;;26.10;55.00;;;;;;5031686;28;19924;-61
2022/08/17 12:16:57;;;;;;;;;;;26.00;54.90;;;;;;5029896;28;19928;-61
2022/08/17 12:19:26;;;;;;;;;;;26.00;55.00;;;;;;5044902;28;19943;-62
2022/08/17 12:21:56;;;;;;;;;;;26.00;55.00;;;;;;5027001;28;20374;-61
2022/08/17 12:24:30;;;;;;;;;;;26.10;55.10;;;;;;5048611;28;19979;-62
2022/08/17 12:26:58;;;;;;;;;;;26.10;55.00;;;;;;5029797;28;19921;-61
2022/08/17 12:29:24;;;;;;;;;;;26.10;55.00;;;;;;5035005;28;19939;-62
2022/08/17 12:31:52;;;;;;;;;;;26.10;54.90;;;;;;5030266;28;19928;-61
2022/08/17 12:34:19;;;;;;;;;;;26.10;54.80;;;;;;5030162;28;20382;-61
2022/08/17 12:36:46;;;;;;;;;;;26.10;54.80;;;;;;5040295;28;19933;-61
2022/08/17 12:39:15;;;;;;;;;;;26.10;54.80;;;;;;5045090;28;19927;-60
2022/08/17 12:41:45;;;;;;;;;;;26.10;54.70;;;;;;5035647;28;19927;-60
2022/08/17 12:44:13;;;;;;;;;;;26.10;54.60;;;;;;5043860;28;19920;-62
2022/08/17 12:46:47;;;;;;;;;;;26.10;54.60;;;;;;5049776;28;20380;-61
2022/08/17 12:49:15;;;;;;;;;;;26.10;54.60;;;;;;5030302;28;19932;-61
2022/08/17 12:51:42;;;;;;;;;;;26.10;54.60;;;;;;5025620;28;19933;-61
2022/08/17 12:54:09;;;;;;;;;;;26.10;54.60;;;;;;5025827;28;19978;-60
2022/08/17 12:56:36;;;;;;;;;;;26.10;54.50;;;;;;5044017;28;19932;-63
2022/08/17 12:59:05;;;;;;;;;;;26.10;54.50;;;;;;5031280;28;19921;-62
2022/08/17 13:01:33;;;;;;;;;;;26.10;54.50;;;;;;5047841;28;19927;-61
2022/08/17 13:04:00;;;;;;;;;;;26.10;54.50;;;;;;5047393;28;19943;-62
2022/08/17 13:06:28;;;;;;;;;;;26.10;54.50;;;;;;5048961;28;19925;-62
2022/08/17 13:08:55;;;;;;;;;;;26.10;54.50;;;;;;5051561;28;19921;-62
2022/08/17 13:11:23;;;;;;;;;;;26.10;54.50;;;;;;5034937;28;19925;-60
2022/08/17 13:13:50;;;;;;;;;;;26.10;54.50;;;;;;5034274;28;19943;-61
2022/08/17 13:16:19;;;;;;;;;;;26.10;54.50;;;;;;5054240;28;19964;-63
2022/08/17 13:18:46;;;;;;;;;;;26.20;54.50;;;;;;5036059;28;19924;-61
2022/08/17 13:21:18;;;;;;;;;;;26.10;54.40;;;;;;5026990;28;20362;-62
2022/08/17 13:23:54;;;;;;;;;;;26.10;54.40;;;;;;5039125;28;19928;-61
2022/08/17 13:26:26;;;;;;;;;;;26.10;54.40;;;;;;5023617;28;19924;-61
2022/08/17 13:28:53;;;;;;;;;;;26.20;54.50;;;;;;5027393;28;20263;-62
2022/08/17 13:31:22;;;;;;;;;;;26.10;54.40;;;;;;5034770;28;19928;-62
2022/08/17 13:33:49;;;;;;;;;;;26.10;54.40;;;;;;5026165;28;19969;-61
2022/08/17 13:36:29;;;;;;;;;;;26.10;55.00;;;;;;5026102;28;19921;-62
2022/08/17 13:39:05;;;;;;;;;;;26.20;54.50;;;;;;5030793;28;19920;-61
2022/08/17 13:41:33;;;;;;;;;;;26.20;54.50;;;;;;5033263;28;19936;-61
2022/08/17 13:44:00;;;;;;;;;;;26.10;54.30;;;;;;5044982;28;20444;-62
2022/08/17 13:46:29;;;;;;;;;;;26.20;54.50;;;;;;5046568;28;20308;-62
2022/08/17 13:48:57;;;;;;;;;;;26.10;54.40;;;;;;5026696;28;19925;-62
2022/08/17 13:51:28;;;;;;;;;;;26.10;54.40;;;;;;5024410;28;19924;-62
2022/08/17 13:54:13;;;;;;;;;;;26.20;54.50;;;;;;5030497;28;20286;-61
2022/08/17 13:56:45;;;;;;;;;;;26.10;54.30;;;;;;5034231;28;19920;-62
2022/08/17 13:59:12;;;;;;;;;;;26.20;54.50;;;;;;5031188;28;19991;-62
2022/08/17 14:01:41;;;;;;;;;;;26.20;54.50;;;;;;5026755;28;19936;-63
2022/08/17 14:04:08;;;;;;;;;;;26.10;54.90;;;;;;5033383;28;19932;-62
2022/08/17 14:06:43;;;;;;;;;;;26.20;54.50;;;;;;5038257;28;19933;-62
2022/08/17 14:09:10;;;;;;;;;;;26.10;54.40;;;;;;5033583;28;19933;-60
2022/08/17 14:11:37;;;;;;;;;;;26.20;54.50;;;;;;5025508;28;19920;-61
2022/08/17 14:14:03;;;;;;;;;;;26.20;54.50;;;;;;5051573;28;19921;-61
2022/08/17 14:16:30;;;;;;;;;;;26.20;54.50;;;;;;5024498;28;19936;-60
2022/08/17 14:18:58;;;;;;;;;;;26.20;54.50;;;;;;5054780;28;19920;-60
2022/08/17 14:21:25;;;;;;;;;;;26.10;54.40;;;;;;5048680;28;19931;-62
2022/08/17 14:23:51;;;;;;;;;;;26.20;54.50;;;;;;5027673;28;19925;-60
2022/08/17 14:26:19;;;;;;;;;;;26.10;54.30;;;;;;5031224;28;19925;-61
2022/08/17 14:28:45;;;;;;;;;;;26.20;54.40;;;;;;5058453;28;19978;-61
2022/08/17 14:31:12;;;;;;;;;;;26.20;54.30;;;;;;5010134;28;19932;-61
2022/08/17 14:33:39;;;;;;;;;;;26.20;54.40;;;;;;5029816;28;19921;-60
2022/08/17 14:36:07;;;;;;;;;;;26.20;54.40;;;;;;5033768;28;19971;-60
2022/08/17 14:38:34;;;;;;;;;;;26.20;54.30;;;;;;5031687;28;19968;-60
2022/08/17 14:41:01;;;;;;;;;;;26.20;54.40;;;;;;5027981;28;19921;-60
2022/08/17 14:43:27;;;;;;;;;;;26.20;54.30;;;;;;5029079;28;19925;-60
2022/08/17 14:45:54;;;;;;;;;;;26.20;54.30;;;;;;5031550;28;19932;-61
2022/08/17 14:48:21;;;;;;;;;;;26.20;54.30;;;;;;5037187;28;19928;-61
2022/08/17 14:50:48;;;;;;;;;;;26.20;54.30;;;;;;5030514;28;19932;-61
2022/08/17 14:53:16;;;;;;;;;;;26.20;54.20;;;;;;5030293;28;19927;-61